createdAt,value
2022-09-01T00:01:39.283Z,1.80
2022-09-01T00:04:08.899Z,2.30
2022-09-01T00:06:36.286Z,1.60
2022-09-01T00:09:09.993Z,2.13
2022-09-01T00:11:37.732Z,1.98
2022-09-01T00:14:06.901Z,1.83
2022-09-01T00:16:50.191Z,2.10
2022-09-01T00:19:19.124Z,1.75
2022-09-01T00:21:46.162Z,1.80
2022-09-01T00:24:17.793Z,1.80
2022-09-01T00:26:46.261Z,1.80
2022-09-01T00:29:13.222Z,2.40
2022-09-01T00:31:40.931Z,1.45
2022-09-01T00:34:07.899Z,2.17
2022-09-01T00:36:34.900Z,2.05
2022-09-01T00:39:02.282Z,1.90
2022-09-01T00:41:32.295Z,1.85
2022-09-01T00:44:07.421Z,1.90
2022-09-01T00:46:47.653Z,1.95
2022-09-01T00:49:26.285Z,1.70
2022-09-01T00:51:58.855Z,1.90
2022-09-01T00:54:32.690Z,1.90
2022-09-01T00:57:02.127Z,1.70
2022-09-01T00:59:30.323Z,1.90
2022-09-01T01:01:58.256Z,1.80
2022-09-01T01:04:25.233Z,1.80
2022-09-01T01:07:03.080Z,1.50
2022-09-01T01:09:38.461Z,1.60
2022-09-01T01:12:07.335Z,1.50
2022-09-01T01:14:36.951Z,1.90
2022-09-01T01:17:04.041Z,1.60
2022-09-01T01:19:49.573Z,1.73
2022-09-01T01:22:59.644Z,2.03
2022-09-01T01:25:27.001Z,1.40
2022-09-01T01:28:11.486Z,1.67
2022-09-01T01:30:41.887Z,1.92
2022-09-01T01:33:09.471Z,1.70
2022-09-01T01:35:38.707Z,1.85
2022-09-01T01:38:07.981Z,1.90
2022-09-01T01:40:36.500Z,1.60
2022-09-01T01:43:04.873Z,1.90
2022-09-01T01:45:32.059Z,1.60
2022-09-01T01:48:00.353Z,1.90
2022-09-01T01:50:35.585Z,1.90
2022-09-01T01:53:10.885Z,1.80
2022-09-01T01:55:39.835Z,1.70
2022-09-01T01:58:08.108Z,1.52
2022-09-01T02:00:35.121Z,1.65
2022-09-01T02:03:02.203Z,1.70
2022-09-01T02:05:33.360Z,1.70
2022-09-01T02:08:04.671Z,1.88
2022-09-01T02:10:39.255Z,1.73
2022-09-01T02:13:07.762Z,1.70
2022-09-01T02:15:43.702Z,1.80
2022-09-01T02:18:14.226Z,1.80
2022-09-01T02:20:41.955Z,1.77
2022-09-01T02:23:10.846Z,1.73
2022-09-01T02:26:14.188Z,1.70
2022-09-01T02:28:37.114Z,1.90
2022-09-01T02:31:05.234Z,1.75
2022-09-01T02:33:32.490Z,1.63
2022-09-01T02:36:03.580Z,2.03
2022-09-01T02:38:31.244Z,1.65
2022-09-01T02:40:59.136Z,1.90
2022-09-01T02:43:28.439Z,1.50
2022-09-01T02:46:01.116Z,1.45
2022-09-01T02:48:40.175Z,1.80
2022-09-01T02:51:14.168Z,1.90
2022-09-01T02:53:42.897Z,1.75
2022-09-01T02:56:17.117Z,1.92
2022-09-01T02:58:48.384Z,1.70
2022-09-01T03:01:26.062Z,1.67
2022-09-01T03:03:59.825Z,1.65
2022-09-01T03:06:28.206Z,1.77
2022-09-01T03:09:00.139Z,1.83
2022-09-01T03:11:29.968Z,1.80
2022-09-01T03:13:57.525Z,1.55
2022-09-01T03:16:24.798Z,1.77
2022-09-01T03:18:52.414Z,1.83
2022-09-01T03:21:20.688Z,1.67
2022-09-01T03:23:49.653Z,1.70
2022-09-01T03:26:19.392Z,1.67
2022-09-01T03:28:46.853Z,1.90
2022-09-01T03:31:14.003Z,1.63
2022-09-01T03:33:42.170Z,1.85
2022-09-01T03:36:14.904Z,1.70
2022-09-01T03:38:43.965Z,1.88
2022-09-01T03:41:13.315Z,2.08
2022-09-01T03:46:22.175Z,1.90
2022-09-01T03:48:51.771Z,1.80
2022-09-01T03:51:22.173Z,1.77
2022-09-01T03:53:50.661Z,2.00
2022-09-01T03:56:17.491Z,2.15
2022-09-01T03:58:47.400Z,2.22
2022-09-01T04:01:16.092Z,1.75
2022-09-01T04:03:46.003Z,1.88
2022-09-01T04:06:13.816Z,1.75
2022-09-01T04:08:40.729Z,1.70
2022-09-01T04:11:18.461Z,1.75
2022-09-01T04:13:47.341Z,1.90
2022-09-01T04:16:54.129Z,1.80
2022-09-01T04:19:27.570Z,1.75
2022-09-01T04:21:59.153Z,1.77
2022-09-01T04:24:28.268Z,1.83
2022-09-01T04:27:02.262Z,1.80
2022-09-01T04:29:30.200Z,1.70
2022-09-01T04:32:02.548Z,2.50
2022-09-01T04:34:37.408Z,1.95
2022-09-01T04:37:09.550Z,1.90
2022-09-01T04:39:39.064Z,1.77
2022-09-01T04:42:06.922Z,1.80
2022-09-01T04:44:33.819Z,1.90
2022-09-01T04:47:00.684Z,1.90
2022-09-01T04:49:28.202Z,1.77
2022-09-01T04:51:55.060Z,1.48
2022-09-01T04:54:22.990Z,2.00
2022-09-01T04:56:52.404Z,1.80
2022-09-01T04:59:22.075Z,1.70
2022-09-01T05:01:50.617Z,1.85
2022-09-01T05:04:21.315Z,1.92
2022-09-01T05:07:01.134Z,1.83
2022-09-01T05:09:36.728Z,1.70
2022-09-01T05:12:13.278Z,1.88
2022-09-01T05:14:48.549Z,2.33
2022-09-01T05:17:17.283Z,1.80
2022-09-01T05:19:47.789Z,1.95
2022-09-01T05:22:15.751Z,2.00
2022-09-01T05:24:42.653Z,1.90
2022-09-01T05:27:10.617Z,2.08
2022-09-01T05:29:38.642Z,2.03
2022-09-01T05:32:10.010Z,1.90
2022-09-01T05:34:38.877Z,2.25
2022-09-01T05:37:08.454Z,2.42
2022-09-01T05:39:38.020Z,1.80
2022-09-01T05:42:08.336Z,1.70
2022-09-01T05:44:36.480Z,1.80
2022-09-01T05:47:05.413Z,2.10
2022-09-01T05:49:33.309Z,2.08
2022-09-01T05:52:00.721Z,2.10
2022-09-01T05:54:29.146Z,2.05
2022-09-01T05:57:23.420Z,2.10
2022-09-01T05:59:53.796Z,2.20
2022-09-01T06:02:22.773Z,1.80
2022-09-01T06:04:49.933Z,1.70
2022-09-01T06:07:18.234Z,1.70
2022-09-01T06:09:48.581Z,2.25
2022-09-01T06:12:20.416Z,1.85
2022-09-01T06:14:48.732Z,2.35
2022-09-01T06:17:18.724Z,2.42
2022-09-01T06:19:46.765Z,2.30
2022-09-01T06:22:13.866Z,2.00
2022-09-01T06:24:40.891Z,2.05
2022-09-01T06:27:10.905Z,2.20
2022-09-01T06:29:41.739Z,1.73
2022-09-01T06:32:10.506Z,2.00
2022-09-01T06:34:42.604Z,1.98
2022-09-01T06:37:11.089Z,2.50
2022-09-01T06:39:38.674Z,1.85
2022-09-01T06:42:06.780Z,1.83
2022-09-01T06:44:33.849Z,2.20
2022-09-01T06:47:01.272Z,2.10
2022-09-01T06:49:34.720Z,2.90
2022-09-01T06:52:03.092Z,2.53
2022-09-01T06:54:34.084Z,1.90
2022-09-01T06:59:52.584Z,2.03
2022-09-01T07:04:53.662Z,2.47
2022-09-01T07:10:25.360Z,1.75
2022-09-01T07:13:05.632Z,2.13
2022-09-01T07:18:23.320Z,2.63
2022-09-01T07:21:35.760Z,2.45
2022-09-01T07:23:47.412Z,2.40
2022-09-01T07:26:26.612Z,2.30
2022-09-01T07:29:01.661Z,2.08
2022-09-01T07:42:55.575Z,2.03
2022-09-01T07:43:00.020Z,1.55
2022-09-01T07:43:09.271Z,1.77
2022-09-01T07:45:47.274Z,2.10
2022-09-01T07:48:35.977Z,1.80
2022-09-01T07:51:35.675Z,1.80
2022-09-01T07:53:51.487Z,1.92
2022-09-01T07:56:20.908Z,2.20
2022-09-01T07:58:49.464Z,2.00
2022-09-01T08:01:19.200Z,2.05
2022-09-01T08:03:49.777Z,1.80
2022-09-01T08:06:19.485Z,1.60
2022-09-01T08:08:48.428Z,2.00
2022-09-01T08:11:40.102Z,1.98
2022-09-01T08:14:09.462Z,1.80
2022-09-01T08:16:40.004Z,2.10
2022-09-01T08:19:16.552Z,1.60
2022-09-01T08:21:44.016Z,1.92
2022-09-01T08:24:11.117Z,2.03
2022-09-01T08:26:38.951Z,1.70
2022-09-01T08:29:06.947Z,1.67
2022-09-01T08:31:37.201Z,1.60
2022-09-01T08:34:07.668Z,1.50
2022-09-01T08:36:35.576Z,1.90
2022-09-01T08:39:03.126Z,1.45
2022-09-01T08:42:02.898Z,1.90
2022-09-01T08:44:48.971Z,2.00
2022-09-01T08:47:28.107Z,1.80
2022-09-01T08:50:00.889Z,1.55
2022-09-01T08:52:35.401Z,1.38
2022-09-01T08:55:18.192Z,1.80
2022-09-01T08:57:46.519Z,1.92
2022-09-01T09:00:18.288Z,2.00
2022-09-01T09:03:22.327Z,1.70
2022-09-01T09:06:11.395Z,1.55
2022-09-01T09:08:58.191Z,1.80
2022-09-01T09:11:53.205Z,1.80
2022-09-01T09:14:35.560Z,1.70
2022-09-01T09:17:04.449Z,1.73
2022-09-01T09:19:36.294Z,1.80
2022-09-01T09:22:11.367Z,1.70
2022-09-01T09:24:57.938Z,1.67
2022-09-01T09:27:46.375Z,1.85
2022-09-01T09:30:15.891Z,1.60
2022-09-01T09:35:43.741Z,1.80
2022-09-01T09:38:24.188Z,1.80
2022-09-01T09:41:18.490Z,1.60
2022-09-01T09:43:49.354Z,1.67
2022-09-01T09:46:43.665Z,1.55
2022-09-01T09:49:36.087Z,2.10
2022-09-01T09:52:16.397Z,1.75
2022-09-01T09:55:22.279Z,1.50
2022-09-01T09:57:53.186Z,1.40
2022-09-01T10:00:34.908Z,1.50
2022-09-01T10:03:08.735Z,1.42
2022-09-01T10:05:51.732Z,1.70
2022-09-01T10:08:28.409Z,1.70
2022-09-01T10:10:57.545Z,1.65
2022-09-01T10:13:29.193Z,1.70
2022-09-01T10:16:03.764Z,1.45
2022-09-01T10:18:40.721Z,1.40
2022-09-01T10:21:19.340Z,1.70
2022-09-01T10:23:52.463Z,1.35
2022-09-01T10:26:31.230Z,1.40
2022-09-01T10:29:12.181Z,1.30
2022-09-01T10:31:41.774Z,1.58
2022-09-01T10:34:19.406Z,1.30
2022-09-01T10:36:54.899Z,1.38
2022-09-01T10:39:30.511Z,1.45
2022-09-01T10:42:07.641Z,1.60
2022-09-01T10:44:39.149Z,1.60
2022-09-01T10:47:33.882Z,1.40
2022-09-01T10:50:23.572Z,1.30
2022-09-01T10:52:57.480Z,1.50
2022-09-01T10:55:39.484Z,1.60
2022-09-01T11:01:14.404Z,1.40
2022-09-01T11:03:57.277Z,1.70
2022-09-01T11:06:33.907Z,1.73
2022-09-01T11:09:06.680Z,1.90
2022-09-01T11:11:46.067Z,1.67
2022-09-01T11:14:55.752Z,1.50
2022-09-01T11:17:27.620Z,1.48
2022-09-01T11:20:10.224Z,1.50
2022-09-01T11:22:40.315Z,1.55
2022-09-01T11:25:12.958Z,1.50
2022-09-01T11:27:49.108Z,1.48
2022-09-01T11:30:35.397Z,1.45
2022-09-01T11:33:16.743Z,1.50
2022-09-01T11:35:46.039Z,1.30
2022-09-01T11:38:16.408Z,1.50
2022-09-01T11:40:43.609Z,1.30
2022-09-01T11:43:27.180Z,1.48
2022-09-01T11:46:17.610Z,1.30
2022-09-01T11:48:51.877Z,1.42
2022-09-01T11:51:19.214Z,1.38
2022-09-01T11:53:46.813Z,1.27
2022-09-01T11:56:17.658Z,1.48
2022-09-01T11:58:44.879Z,1.20
2022-09-01T12:01:33.822Z,1.58
2022-09-01T12:04:18.839Z,1.05
2022-09-01T12:06:56.617Z,1.52
2022-09-01T12:09:38.721Z,1.40
2022-09-01T12:12:08.472Z,1.40
2022-09-01T12:15:02.089Z,1.30
2022-09-01T12:17:22.648Z,2.38
2022-09-01T12:19:49.583Z,1.55
2022-09-01T12:22:20.372Z,0.90
2022-09-01T12:24:53.392Z,1.58
2022-09-01T12:27:23.150Z,2.30
2022-09-01T12:29:51.527Z,1.67
2022-09-01T12:32:19.847Z,1.27
2022-09-01T12:35:01.479Z,1.27
2022-09-01T12:37:29.610Z,1.42
2022-09-01T12:39:58.660Z,1.25
2022-09-01T12:42:41.007Z,1.00
2022-09-01T12:45:10.139Z,1.20
2022-09-01T12:47:37.579Z,1.33
2022-09-01T12:50:13.783Z,1.35
2022-09-01T12:52:55.582Z,1.30
2022-09-01T12:55:47.675Z,1.20
2022-09-01T12:58:23.947Z,1.20
2022-09-01T13:01:22.125Z,1.40
2022-09-01T13:04:15.152Z,1.10
2022-09-01T13:06:42.311Z,1.17
2022-09-01T13:09:10.278Z,1.08
2022-09-01T13:14:25.644Z,1.17
2022-09-01T13:16:52.629Z,1.20
2022-09-01T13:19:27.445Z,1.25
2022-09-01T13:21:55.758Z,1.10
2022-09-01T13:24:28.071Z,1.10
2022-09-01T13:29:43.872Z,1.00
2022-09-01T13:32:19.651Z,1.10
2022-09-01T13:34:52.135Z,1.00
2022-09-01T13:37:21.785Z,1.20
2022-09-01T13:39:49.468Z,1.42
2022-09-01T13:42:17.459Z,1.33
2022-09-01T13:44:45.651Z,0.90
2022-09-01T13:47:29.723Z,1.20
2022-09-01T13:50:08.373Z,1.15
2022-09-01T13:55:06.618Z,1.05
2022-09-01T13:57:36.015Z,1.20
2022-09-01T14:00:05.938Z,1.15
2022-09-01T14:02:32.828Z,1.13
2022-09-01T14:04:59.951Z,0.95
2022-09-01T14:07:26.960Z,1.27
2022-09-01T14:09:55.069Z,1.30
2022-09-01T14:12:22.404Z,1.20
2022-09-01T14:17:37.118Z,1.00
2022-09-01T14:20:12.840Z,0.95
2022-09-01T14:22:40.892Z,1.10
2022-09-01T14:25:10.544Z,1.08
2022-09-01T14:27:38.427Z,1.20
2022-09-01T14:30:08.078Z,1.17
2022-09-01T14:32:35.368Z,1.23
2022-09-01T14:35:02.736Z,1.02
2022-09-01T14:37:29.662Z,1.20
2022-09-01T14:39:58.151Z,0.80
2022-09-01T14:42:25.821Z,1.15
2022-09-01T14:44:56.039Z,0.98
2022-09-01T14:47:25.991Z,0.75
2022-09-01T14:49:53.962Z,1.15
2022-09-01T14:52:21.984Z,1.05
2022-09-01T14:54:49.360Z,0.82
2022-09-01T14:57:36.615Z,1.13
2022-09-01T15:00:06.600Z,1.50
2022-09-01T15:02:33.825Z,0.93
2022-09-01T15:05:00.821Z,1.13
2022-09-01T15:07:27.851Z,1.00
2022-09-01T15:09:54.677Z,1.10
2022-09-01T15:12:22.430Z,1.35
2022-09-01T15:14:49.292Z,1.05
2022-09-01T15:17:16.163Z,1.15
2022-09-01T15:19:43.151Z,1.08
2022-09-01T15:22:14.515Z,1.17
2022-09-01T15:24:41.376Z,1.13
2022-09-01T15:27:08.731Z,1.02
2022-09-01T15:29:45.895Z,0.88
2022-09-01T15:32:20.856Z,0.98
2022-09-01T15:34:54.839Z,0.70
2022-09-01T15:37:21.815Z,1.20
2022-09-01T15:39:48.677Z,1.00
2022-09-01T15:42:16.782Z,0.60
2022-09-01T15:44:43.666Z,1.00
2022-09-01T15:47:10.541Z,1.02
2022-09-01T15:49:37.644Z,0.93
2022-09-01T15:52:04.516Z,1.02
2022-09-01T15:54:31.506Z,1.00
2022-09-01T15:56:58.406Z,0.63
2022-09-01T15:59:25.311Z,0.80
2022-09-01T16:01:54.143Z,0.90
2022-09-01T16:04:26.907Z,0.88
2022-09-01T16:06:56.557Z,0.90
2022-09-01T16:09:25.411Z,1.00
2022-09-01T16:11:53.163Z,1.10
2022-09-01T16:14:21.168Z,1.10
2022-09-01T16:17:03.344Z,0.90
2022-09-01T16:19:52.636Z,1.10
2022-09-01T16:22:33.037Z,1.92
2022-09-01T16:25:04.299Z,0.80
2022-09-01T16:27:36.270Z,0.90
2022-09-01T16:30:09.730Z,0.80
2022-09-01T16:32:39.383Z,1.75
2022-09-01T16:35:06.968Z,1.10
2022-09-01T16:37:45.696Z,1.15
2022-09-01T16:40:31.215Z,1.00
2022-09-01T16:43:16.329Z,1.38
2022-09-01T16:45:51.048Z,1.10
2022-09-01T16:48:20.976Z,0.70
2022-09-01T16:51:12.721Z,0.88
2022-09-01T16:54:13.245Z,0.63
2022-09-01T16:57:06.601Z,1.45
2022-09-01T16:59:56.158Z,1.23
2022-09-01T17:02:51.074Z,1.90
2022-09-01T17:05:31.221Z,1.35
2022-09-01T17:08:22.339Z,1.40
2022-09-01T17:11:04.719Z,1.50
2022-09-01T17:13:32.347Z,1.40
2022-09-01T17:16:07.994Z,1.40
2022-09-01T17:18:56.947Z,1.13
2022-09-01T17:21:32.272Z,1.27
2022-09-01T17:24:28.451Z,1.27
2022-09-01T17:27:05.100Z,1.20
2022-09-01T17:29:48.017Z,0.90
2022-09-01T17:32:50.735Z,1.23
2022-09-01T17:35:37.653Z,1.35
2022-09-01T17:38:23.596Z,1.45
2022-09-01T17:41:16.031Z,1.50
2022-09-01T17:44:18.141Z,1.55
2022-09-01T17:47:03.643Z,2.15
2022-09-01T17:50:04.298Z,2.28
2022-09-01T17:52:56.353Z,3.83
2022-09-01T17:55:35.514Z,4.47
2022-09-01T17:58:27.137Z,3.00
2022-09-01T18:01:28.356Z,2.88
2022-09-01T18:03:59.190Z,2.55
2022-09-01T18:06:39.284Z,2.50
2022-09-01T18:09:07.265Z,2.20
2022-09-01T18:12:01.211Z,1.70
2022-09-01T18:14:37.153Z,2.03
2022-09-01T18:17:15.780Z,2.00
2022-09-01T18:19:51.125Z,1.87
2022-09-01T18:22:21.523Z,1.73
2022-09-01T18:25:07.063Z,2.28
2022-09-01T18:27:35.160Z,1.52
2022-09-01T18:30:02.360Z,1.80
2022-09-01T18:32:42.087Z,1.77
2022-09-01T18:35:41.122Z,1.58
2022-09-01T18:38:28.623Z,1.65
2022-09-01T18:41:14.039Z,1.63
2022-09-01T18:43:43.944Z,1.50
2022-09-01T18:46:22.864Z,1.63
2022-09-01T18:49:05.061Z,1.60
2022-09-01T18:52:06.289Z,1.70
2022-09-01T18:54:42.135Z,1.60
2022-09-01T18:57:15.804Z,1.60
2022-09-01T19:00:22.016Z,1.42
2022-09-01T19:03:02.550Z,1.70
2022-09-01T19:05:54.696Z,1.60
2022-09-01T19:08:37.617Z,1.50
2022-09-01T19:11:19.609Z,1.50
2022-09-01T19:14:07.716Z,1.40
2022-09-01T19:16:59.186Z,1.40
2022-09-01T19:19:48.876Z,1.52
2022-09-01T19:22:47.198Z,1.50
2022-09-01T19:25:36.234Z,1.40
2022-09-01T19:28:15.608Z,1.88
2022-09-01T19:31:10.207Z,1.40
2022-09-01T19:33:43.687Z,1.85
2022-09-01T19:36:18.059Z,1.50
2022-09-01T19:38:45.247Z,1.90
2022-09-01T19:41:35.991Z,1.63
2022-09-01T19:44:33.495Z,1.65
2022-09-01T19:47:09.642Z,1.50
2022-09-01T19:49:46.841Z,1.90
2022-09-01T19:52:37.182Z,1.60
2022-09-01T19:55:12.135Z,1.70
2022-09-01T19:58:06.903Z,1.52
2022-09-01T20:00:52.609Z,1.95
2022-09-01T20:03:33.201Z,1.80
2022-09-01T20:06:16.967Z,1.42
2022-09-01T20:08:56.656Z,1.70
2022-09-01T20:11:44.693Z,1.83
2022-09-01T20:14:33.092Z,1.70
2022-09-01T20:17:06.743Z,1.73
2022-09-01T20:19:48.841Z,2.03
2022-09-01T20:22:19.571Z,2.10
2022-09-01T20:24:47.775Z,1.80
2022-09-01T20:27:32.097Z,1.83
2022-09-01T20:30:05.861Z,1.77
2022-09-01T20:32:41.116Z,1.75
2022-09-01T20:35:39.754Z,1.70
2022-09-01T20:38:46.194Z,1.75
2022-09-01T20:41:23.093Z,1.70
2022-09-01T20:43:52.490Z,1.60
2022-09-01T20:46:21.131Z,1.85
2022-09-01T20:48:48.467Z,1.90
2022-09-01T20:51:21.607Z,1.63
2022-09-01T20:53:52.892Z,1.85
2022-09-01T20:56:28.923Z,1.92
2022-09-01T20:59:10.129Z,1.80
2022-09-01T21:01:57.805Z,1.70
2022-09-01T21:04:24.718Z,2.03
2022-09-01T21:07:14.760Z,1.70
2022-09-01T21:10:06.856Z,2.10
2022-09-01T21:12:36.795Z,1.70
2022-09-01T21:15:29.195Z,1.73
2022-09-01T21:18:02.272Z,1.70
2022-09-01T21:20:46.793Z,1.73
2022-09-01T21:23:16.217Z,1.92
2022-09-01T21:25:46.788Z,1.85
2022-09-01T21:28:20.216Z,1.80
2022-09-01T21:30:54.321Z,2.00
2022-09-01T21:33:22.273Z,1.85
2022-09-01T21:35:49.981Z,1.77
2022-09-01T21:38:17.238Z,1.90
2022-09-01T21:40:44.904Z,1.70
2022-09-01T21:43:45.261Z,1.92
2022-09-01T21:46:14.657Z,1.90
2022-09-01T21:48:41.935Z,1.88
2022-09-01T21:51:08.869Z,2.10
2022-09-01T21:53:35.836Z,1.90
2022-09-01T21:56:02.938Z,1.90
2022-09-01T21:58:29.904Z,1.70
2022-09-01T22:00:58.749Z,1.70
2022-09-01T22:03:25.670Z,1.88
2022-09-01T22:05:52.794Z,1.95
2022-09-01T22:08:19.816Z,1.70
2022-09-01T22:10:52.105Z,1.80
2022-09-01T22:13:20.859Z,1.90
2022-09-01T22:15:51.612Z,1.60
2022-09-01T22:18:20.887Z,1.63
2022-09-01T22:20:48.421Z,1.80
2022-09-01T22:23:16.807Z,1.83
2022-09-01T22:25:45.954Z,1.70
2022-09-01T22:28:13.423Z,1.60
2022-09-01T22:30:45.332Z,1.75
2022-09-01T22:33:12.761Z,1.45
2022-09-01T22:35:44.453Z,1.65
2022-09-01T22:38:11.964Z,1.38
2022-09-01T22:41:08.657Z,1.70
2022-09-01T22:43:35.528Z,1.60
2022-09-01T22:46:05.900Z,1.90
2022-09-01T22:48:32.789Z,1.60
2022-09-01T22:51:01.948Z,1.58
2022-09-01T22:53:32.084Z,1.58
2022-09-01T22:55:58.953Z,1.58
2022-09-01T22:58:25.829Z,1.50
2022-09-01T23:00:56.289Z,1.40
2022-09-01T23:03:23.452Z,1.40
2022-09-01T23:06:02.234Z,1.75
2022-09-01T23:08:29.144Z,1.60
2022-09-01T23:10:56.066Z,1.60
2022-09-01T23:13:23.334Z,2.00
2022-09-01T23:15:50.229Z,1.40
2022-09-01T23:18:17.097Z,1.55
2022-09-01T23:20:44.060Z,1.42
2022-09-01T23:23:10.863Z,1.50
2022-09-01T23:25:37.833Z,1.60
2022-09-01T23:28:04.959Z,1.63
2022-09-01T23:30:31.846Z,1.63
2022-09-01T23:32:58.717Z,1.55
2022-09-01T23:35:25.616Z,1.40
2022-09-01T23:37:52.493Z,1.60
2022-09-01T23:40:19.699Z,1.55
2022-09-01T23:42:46.844Z,1.50
2022-09-01T23:45:13.909Z,1.50
2022-09-01T23:47:40.849Z,1.45
2022-09-01T23:50:08.379Z,1.60
2022-09-01T23:52:35.413Z,1.55
2022-09-01T23:55:02.408Z,1.42
2022-09-01T23:57:29.268Z,1.50
2022-09-01T23:59:57.134Z,1.30
